Time;durP1;ratioP1;P1;durP2;ratioP2;P2;SDS_P1;SDS_P2;PMS_P1;PMS_P2;Temp;Humidity;BMP_temperature;BMP_pressure;BME280_temperature;BME280_humidity;BME280_pressure;Samples;Min_cycle;Max_cycle;Signal;HPM_P1;HPM_P2
2023/11/12 00:00:55;;;;;;;3.42;1.00;;;6.60;80.90;;;;;;4863074;29;20042;-93
2023/11/12 00:03:22;;;;;;;3.28;0.85;;;6.60;80.80;;;;;;4833385;29;20102;-93
2023/11/12 00:05:52;;;;;;;2.97;0.80;;;6.50;80.80;;;;;;4835111;29;20045;-93
2023/11/12 00:08:19;;;;;;;2.95;0.80;;;6.50;80.80;;;;;;4855410;29;20049;-93
2023/11/12 00:10:47;;;;;;;3.03;0.83;;;6.50;81.10;;;;;;4841416;29;20052;-93
2023/11/12 00:13:14;;;;;;;2.65;0.88;;;6.50;81.40;;;;;;4842635;29;20060;-92
2023/11/12 00:15:41;;;;;;;3.38;0.65;;;6.50;80.80;;;;;;4837304;29;20057;-92
2023/11/12 00:18:08;;;;;;;3.63;0.90;;;6.50;80.40;;;;;;4841026;29;20045;-93
2023/11/12 00:20:35;;;;;;;2.65;0.90;;;6.50;80.40;;;;;;4838572;29;20041;-93
2023/11/12 00:23:02;;;;;;;3.17;0.80;;;6.50;80.60;;;;;;4844096;29;20501;-93
2023/11/12 00:25:29;;;;;;;2.75;0.90;;;6.50;80.50;;;;;;4847942;29;20544;-93
2023/11/12 00:27:57;;;;;;;3.00;0.80;;;6.50;80.60;;;;;;4856699;29;20053;-92
2023/11/12 00:30:24;;;;;;;2.60;0.70;;;6.40;80.50;;;;;;4848462;29;20500;-93
2023/11/12 00:32:52;;;;;;;2.85;0.70;;;6.40;80.60;;;;;;4840955;29;20136;-93
2023/11/12 00:35:19;;;;;;;3.57;0.90;;;6.50;80.80;;;;;;4855664;29;20045;-93
2023/11/12 00:37:46;;;;;;;2.53;0.70;;;6.50;80.50;;;;;;4846421;29;20124;-93
2023/11/12 00:40:14;;;;;;;3.60;0.80;;;6.40;80.10;;;;;;4839558;29;20052;-92
2023/11/12 00:42:41;;;;;;;3.17;0.93;;;6.50;80.40;;;;;;4857120;29;20037;-93
2023/11/12 00:45:08;;;;;;;2.25;0.73;;;6.40;80.20;;;;;;4838007;29;20056;-93
2023/11/12 00:47:35;;;;;;;3.10;0.90;;;6.40;79.90;;;;;;4838460;29;20110;-92
2023/11/12 00:50:03;;;;;;;3.38;1.10;;;6.40;80.30;;;;;;4853562;29;20520;-93
2023/11/12 00:52:33;;;;;;;3.83;0.88;;;6.40;80.40;;;;;;4840664;29;20041;-93
2023/11/12 00:55:00;;;;;;;3.40;1.02;;;6.40;80.60;;;;;;4848357;29;20094;-93
2023/11/12 00:57:30;;;;;;;2.80;0.88;;;6.30;80.50;;;;;;4856222;29;20041;-93
2023/11/12 00:59:57;;;;;;;2.87;0.70;;;6.40;80.70;;;;;;4837995;29;20050;-93
2023/11/12 01:02:24;;;;;;;4.82;0.98;;;6.40;80.30;;;;;;4833988;29;20077;-93
2023/11/12 01:04:52;;;;;;;3.38;0.85;;;6.40;80.00;;;;;;4838362;29;20509;-93
2023/11/12 01:07:23;;;;;;;3.17;0.98;;;6.40;80.40;;;;;;4844515;29;20041;-93
2023/11/12 01:09:50;;;;;;;3.60;0.93;;;6.20;80.40;;;;;;4846190;29;20069;-92
2023/11/12 01:12:19;;;;;;;3.03;0.97;;;6.10;80.40;;;;;;4845255;29;20504;-93
2023/11/12 01:14:46;;;;;;;3.92;0.93;;;6.10;80.80;;;;;;4838633;29;20179;-93
2023/11/12 01:17:13;;;;;;;3.75;1.00;;;6.00;81.00;;;;;;4845118;29;20100;-93
2023/11/12 01:19:40;;;;;;;4.75;0.90;;;6.00;81.30;;;;;;4835014;29;20040;-93
2023/11/12 01:22:08;;;;;;;3.00;0.85;;;6.00;81.10;;;;;;4851720;29;20132;-93
2023/11/12 01:24:36;;;;;;;3.20;1.00;;;6.10;81.20;;;;;;4839706;29;20056;-93
2023/11/12 01:27:04;;;;;;;3.63;1.20;;;6.20;81.00;;;;;;4838113;29;20094;-93
2023/11/12 01:29:31;;;;;;;3.70;1.02;;;6.20;81.20;;;;;;4841274;29;20049;-93
2023/11/12 01:31:58;;;;;;;3.17;0.90;;;6.30;81.00;;;;;;4839223;29;20056;-93
2023/11/12 01:34:25;;;;;;;4.28;0.90;;;6.20;80.60;;;;;;4852231;29;20535;-92
2023/11/12 01:36:53;;;;;;;3.00;0.80;;;6.10;80.70;;;;;;4862662;29;20112;-93
2023/11/12 01:39:20;;;;;;;4.95;1.05;;;6.00;80.70;;;;;;4844315;29;20053;-93
2023/11/12 01:41:47;;;;;;;4.30;1.10;;;6.10;81.20;;;;;;4849547;29;20041;-93
2023/11/12 01:44:14;;;;;;;3.67;0.88;;;6.20;81.30;;;;;;4837518;29;20037;-93
2023/11/12 01:46:41;;;;;;;2.17;0.68;;;6.40;81.10;;;;;;4845786;29;20056;-93
2023/11/12 01:49:08;;;;;;;2.53;0.70;;;6.30;80.50;;;;;;4860498;29;20049;-94
2023/11/12 01:51:37;;;;;;;3.33;0.60;;;6.20;80.30;;;;;;4846988;29;20048;-93
2023/11/12 01:54:04;;;;;;;3.95;0.88;;;6.20;80.50;;;;;;4851449;29;20052;-92
2023/11/12 01:56:33;;;;;;;2.80;0.70;;;6.20;80.60;;;;;;4839653;29;20105;-92
2023/11/12 01:59:01;;;;;;;2.30;0.60;;;6.20;80.80;;;;;;4849186;29;20049;-93
2023/11/12 02:01:29;;;;;;;3.37;0.70;;;6.20;80.70;;;;;;4841860;29;20463;-93
2023/11/12 02:03:57;;;;;;;4.70;0.77;;;6.20;80.40;;;;;;4836692;29;20053;-93
2023/11/12 02:06:25;;;;;;;3.10;0.82;;;6.20;80.20;;;;;;4836658;29;20049;-93
2023/11/12 02:08:52;;;;;;;2.72;0.70;;;6.20;80.20;;;;;;4845031;29;20578;-92
2023/11/12 02:11:20;;;;;;;2.33;0.63;;;6.10;80.40;;;;;;4858137;29;20056;-92
2023/11/12 02:13:47;;;;;;;2.63;0.60;;;6.10;80.20;;;;;;4836016;29;20060;-92
2023/11/12 02:16:14;;;;;;;3.33;0.88;;;6.10;80.20;;;;;;4837749;29;20516;-92
2023/11/12 02:18:47;;;;;;;3.58;0.88;;;6.00;80.50;;;;;;4836990;29;20052;-92
2023/11/12 02:21:21;;;;;;;3.65;0.90;;;6.10;80.90;;;;;;4836758;29;20045;-93
2023/11/12 02:23:48;;;;;;;2.15;0.63;;;6.10;80.50;;;;;;4844808;29;20053;-93
2023/11/12 02:26:15;;;;;;;4.07;1.10;;;6.10;80.70;;;;;;4835265;29;20048;-93
2023/11/12 02:28:42;;;;;;;3.65;0.88;;;6.10;80.70;;;;;;4842262;29;20142;-93
2023/11/12 02:31:09;;;;;;;2.83;0.70;;;6.10;80.70;;;;;;4857658;29;20045;-93
2023/11/12 02:33:37;;;;;;;2.75;0.90;;;5.90;80.90;;;;;;4835525;29;20045;-92
2023/11/12 02:36:05;;;;;;;2.72;0.60;;;5.80;81.20;;;;;;4835751;29;20140;-93
2023/11/12 02:38:32;;;;;;;3.17;0.77;;;5.90;81.60;;;;;;4836255;29;20073;-92
2023/11/12 02:41:02;;;;;;;2.55;0.75;;;6.00;81.80;;;;;;4853227;29;20412;-92
2023/11/12 02:43:29;;;;;;;2.67;0.65;;;6.00;81.50;;;;;;4842836;29;20085;-92
2023/11/12 02:45:56;;;;;;;2.97;0.93;;;5.90;81.60;;;;;;4850803;29;20060;-92
2023/11/12 02:48:23;;;;;;;3.08;0.88;;;5.80;81.90;;;;;;4833784;29;20049;-93
2023/11/12 02:50:50;;;;;;;2.73;0.80;;;5.80;82.10;;;;;;4837981;29;20049;-93
2023/11/12 02:53:17;;;;;;;3.20;0.90;;;5.90;82.00;;;;;;4842363;29;20068;-93
2023/11/12 02:55:44;;;;;;;3.45;0.90;;;5.90;82.00;;;;;;4855579;29;20063;-93
2023/11/12 02:58:11;;;;;;;3.88;0.70;;;5.90;81.50;;;;;;4837208;29;20056;-92
2023/11/12 03:00:38;;;;;;;3.67;0.82;;;6.00;81.40;;;;;;4850291;29;20052;-93
2023/11/12 03:03:05;;;;;;;2.70;0.80;;;6.00;81.10;;;;;;4843129;29;20045;-93
2023/11/12 03:05:33;;;;;;;4.22;1.00;;;6.10;81.00;;;;;;4833823;29;20128;-93
2023/11/12 03:08:00;;;;;;;3.10;0.85;;;6.10;80.80;;;;;;4855279;29;20112;-93
2023/11/12 03:10:27;;;;;;;3.60;1.10;;;6.10;81.00;;;;;;4837486;29;20441;-93
2023/11/12 03:12:54;;;;;;;3.38;1.00;;;6.00;81.00;;;;;;4842958;29;20105;-92
2023/11/12 03:15:23;;;;;;;3.73;1.27;;;6.00;80.70;;;;;;4839862;29;20053;-92
2023/11/12 03:17:52;;;;;;;2.47;0.70;;;6.00;80.80;;;;;;4841327;29;20054;-92
2023/11/12 03:20:19;;;;;;;4.10;1.20;;;5.90;81.10;;;;;;4837963;29;20046;-92
2023/11/12 03:22:46;;;;;;;3.88;1.00;;;5.90;81.30;;;;;;4843434;29;20128;-92
2023/11/12 03:25:14;;;;;;;2.47;0.73;;;5.90;81.00;;;;;;4840549;29;20060;-91
2023/11/12 03:27:42;;;;;;;3.13;0.80;;;5.80;81.20;;;;;;4846194;29;20045;-92
2023/11/12 03:30:12;;;;;;;4.57;1.10;;;5.80;81.30;;;;;;4842263;29;20049;-92
2023/11/12 03:32:40;;;;;;;5.35;1.15;;;5.90;81.60;;;;;;4842842;29;20049;-92
2023/11/12 03:35:08;;;;;;;2.25;0.75;;;5.90;81.50;;;;;;4854624;29;20049;-92
2023/11/12 03:37:37;;;;;;;3.28;0.70;;;5.90;81.50;;;;;;4846053;29;20061;-93
2023/11/12 03:40:05;;;;;;;2.80;0.60;;;5.80;81.20;;;;;;4839641;29;20456;-93
2023/11/12 03:42:32;;;;;;;2.58;0.65;;;5.70;81.50;;;;;;4849235;29;20046;-93
2023/11/12 03:44:59;;;;;;;2.03;0.70;;;5.80;81.60;;;;;;4849674;29;20058;-92
2023/11/12 03:47:26;;;;;;;2.95;0.50;;;5.80;81.50;;;;;;4853507;29;20049;-92
2023/11/12 03:49:53;;;;;;;2.45;0.50;;;5.80;81.50;;;;;;4838444;29;20053;-92
2023/11/12 03:52:20;;;;;;;2.03;0.50;;;5.90;81.50;;;;;;4842631;29;20053;-92
2023/11/12 03:54:47;;;;;;;2.35;0.52;;;5.90;81.20;;;;;;4842844;29;20060;-93
2023/11/12 03:57:17;;;;;;;1.85;0.40;;;5.80;81.20;;;;;;4842922;29;20465;-93
2023/11/12 03:59:44;;;;;;;2.97;0.57;;;5.80;81.50;;;;;;4842305;29;20049;-92
2023/11/12 04:02:11;;;;;;;2.03;0.30;;;5.90;81.60;;;;;;4841284;29;20037;-92
2023/11/12 04:04:38;;;;;;;3.93;0.40;;;5.80;80.90;;;;;;4855712;29;20388;-92
2023/11/12 04:07:06;;;;;;;1.67;0.40;;;5.70;80.80;;;;;;4845030;29;20069;-93
2023/11/12 04:09:33;;;;;;;0.95;0.40;;;5.70;81.10;;;;;;4842955;29;20516;-93
2023/11/12 04:12:00;;;;;;;1.92;0.30;;;5.60;80.80;;;;;;4836840;29;20110;-93
2023/11/12 04:14:27;;;;;;;1.75;0.40;;;5.50;80.80;;;;;;4842471;29;20477;-92
2023/11/12 04:16:54;;;;;;;1.43;0.40;;;5.50;81.00;;;;;;4855290;29;20049;-94
2023/11/12 04:19:21;;;;;;;1.88;0.40;;;5.60;81.30;;;;;;4843026;29;20133;-93
2023/11/12 04:21:48;;;;;;;2.38;0.20;;;5.50;81.10;;;;;;4842254;29;20101;-93
2023/11/12 04:24:16;;;;;;;1.67;0.40;;;5.50;81.40;;;;;;4849155;29;20101;-93
2023/11/12 04:26:44;;;;;;;1.83;0.30;;;5.50;81.40;;;;;;4859237;29;20135;-94
2023/11/12 04:29:13;;;;;;;5.33;0.30;;;5.50;81.40;;;;;;4840097;29;20132;-93
2023/11/12 04:31:40;;;;;;;1.35;0.20;;;5.50;81.50;;;;;;4850760;29;20042;-93
2023/11/12 04:34:08;;;;;;;1.98;0.22;;;5.60;81.40;;;;;;4842361;29;20076;-92
2023/11/12 04:36:35;;;;;;;1.35;0.30;;;5.50;81.00;;;;;;4839353;29;20118;-93
2023/11/12 04:39:03;;;;;;;1.73;0.30;;;5.50;81.40;;;;;;4840561;29;20049;-93
2023/11/12 04:41:31;;;;;;;1.40;0.30;;;5.50;81.60;;;;;;4842340;29;20132;-92
2023/11/12 04:43:59;;;;;;;2.13;0.50;;;5.60;81.50;;;;;;4837078;29;20049;-92
2023/11/12 04:46:27;;;;;;;2.15;0.20;;;5.70;81.10;;;;;;4840315;29;20051;-93
2023/11/12 04:48:55;;;;;;;1.05;0.25;;;5.50;80.60;;;;;;4842069;29;20049;-93
2023/11/12 04:51:22;;;;;;;0.98;0.20;;;5.50;81.00;;;;;;4851861;29;20461;-93
2023/11/12 04:53:50;;;;;;;1.30;0.20;;;5.50;81.20;;;;;;4843442;29;20500;-93
2023/11/12 04:56:17;;;;;;;0.93;0.20;;;5.60;80.80;;;;;;4855898;29;20053;-93
2023/11/12 04:58:44;;;;;;;0.98;0.30;;;5.50;80.90;;;;;;4836106;29;20076;-93
2023/11/12 05:01:11;;;;;;;1.20;0.20;;;5.60;81.30;;;;;;4845418;29;20073;-92
2023/11/12 05:03:38;;;;;;;1.30;0.20;;;5.70;81.00;;;;;;4840629;29;20052;-92
2023/11/12 05:06:06;;;;;;;1.00;0.30;;;5.90;80.60;;;;;;4838938;29;20053;-92
2023/11/12 05:08:33;;;;;;;1.17;0.30;;;6.00;80.30;;;;;;4841834;29;20046;-93
2023/11/12 05:11:00;;;;;;;0.77;0.30;;;6.00;80.00;;;;;;4839594;29;20537;-93
2023/11/12 05:13:27;;;;;;;1.88;0.40;;;6.10;79.90;;;;;;4840527;29;20053;-93
2023/11/12 05:15:54;;;;;;;1.00;0.30;;;6.20;80.00;;;;;;4855124;29;20057;-92
2023/11/12 05:18:21;;;;;;;2.27;0.50;;;6.20;79.80;;;;;;4855268;29;20118;-92
2023/11/12 05:20:48;;;;;;;1.52;0.30;;;6.20;79.90;;;;;;4864457;29;20049;-93
2023/11/12 05:23:16;;;;;;;1.95;0.30;;;6.20;79.40;;;;;;4847266;29;20053;-93
2023/11/12 05:25:45;;;;;;;0.80;0.20;;;6.20;79.10;;;;;;4837952;29;20038;-92
2023/11/12 05:28:12;;;;;;;1.17;0.30;;;6.20;79.20;;;;;;4838549;29;20046;-93
2023/11/12 05:30:39;;;;;;;1.60;0.30;;;6.20;79.60;;;;;;4837319;29;20049;-93
2023/11/12 05:33:06;;;;;;;2.28;0.50;;;6.20;79.60;;;;;;4843654;29;20518;-93
2023/11/12 05:35:33;;;;;;;1.00;0.20;;;6.30;78.90;;;;;;4837823;29;20059;-93
2023/11/12 05:38:00;;;;;;;2.20;0.50;;;6.20;79.00;;;;;;4844756;29;20073;-92
2023/11/12 05:40:29;;;;;;;1.52;0.40;;;6.20;79.40;;;;;;4842094;29;20057;-92
2023/11/12 05:42:56;;;;;;;2.53;0.43;;;6.20;79.40;;;;;;4837999;29;20057;-92
2023/11/12 05:45:23;;;;;;;3.65;0.40;;;6.30;79.40;;;;;;4850396;29;20057;-92
2023/11/12 05:47:51;;;;;;;1.55;0.30;;;6.40;79.00;;;;;;4837297;29;20078;-92
2023/11/12 05:50:23;;;;;;;2.58;0.43;;;6.30;79.20;;;;;;4835917;29;20049;-93
2023/11/12 05:52:51;;;;;;;1.15;0.25;;;6.20;79.50;;;;;;4836922;29;20413;-93
2023/11/12 05:55:18;;;;;;;2.10;0.40;;;6.20;79.60;;;;;;4835949;29;20500;-93
2023/11/12 05:57:45;;;;;;;1.67;0.32;;;6.20;79.50;;;;;;4838832;29;20049;-94
2023/11/12 06:00:13;;;;;;;1.30;0.30;;;6.00;79.50;;;;;;4844876;29;20519;-92
2023/11/12 06:02:40;;;;;;;2.65;0.50;;;5.90;80.00;;;;;;4859862;29;20048;-93
2023/11/12 06:05:07;;;;;;;2.42;0.57;;;5.90;80.20;;;;;;4839177;29;20540;-94
2023/11/12 06:07:34;;;;;;;2.00;0.50;;;5.90;80.30;;;;;;4861460;29;20053;-94
2023/11/12 06:10:05;;;;;;;2.25;0.50;;;5.80;80.50;;;;;;4845769;29;20049;-94
2023/11/12 06:12:32;;;;;;;2.05;0.60;;;5.90;80.20;;;;;;4830767;29;20049;-94
2023/11/12 06:14:59;;;;;;;3.10;0.60;;;5.90;80.60;;;;;;4857179;29;20064;-94
2023/11/12 06:17:27;;;;;;;2.08;0.63;;;5.80;80.40;;;;;;4849672;29;20096;-93
2023/11/12 06:19:54;;;;;;;4.33;0.80;;;5.80;80.90;;;;;;4842616;29;20046;-92
2023/11/12 06:22:21;;;;;;;3.78;1.00;;;5.90;80.80;;;;;;4834042;29;20041;-93
2023/11/12 06:24:48;;;;;;;3.92;0.75;;;5.90;80.50;;;;;;4832914;29;20546;-95
2023/11/12 06:27:16;;;;;;;3.70;1.20;;;6.00;80.80;;;;;;4831181;29;20054;-92
2023/11/12 06:29:43;;;;;;;5.22;1.20;;;6.10;80.70;;;;;;4836926;29;20052;-91
2023/11/12 06:32:10;;;;;;;4.47;1.33;;;6.20;80.80;;;;;;4836092;29;20050;-92
2023/11/12 06:34:38;;;;;;;4.15;1.15;;;6.30;80.50;;;;;;4840254;29;20115;-93
2023/11/12 06:37:05;;;;;;;4.85;1.30;;;6.30;80.60;;;;;;4842753;29;20619;-94
2023/11/12 06:39:33;;;;;;;3.92;1.27;;;6.40;80.70;;;;;;4827958;29;20084;-93
2023/11/12 06:42:00;;;;;;;6.68;2.20;;;6.30;80.60;;;;;;4827812;29;20042;-94
2023/11/12 06:44:30;;;;;;;4.57;1.43;;;6.20;80.80;;;;;;4827950;29;20046;-94
2023/11/12 06:46:57;;;;;;;4.78;1.80;;;6.20;80.90;;;;;;4833154;29;20060;-94
2023/11/12 06:49:24;;;;;;;6.00;2.45;;;6.40;80.90;;;;;;4840216;29;20098;-93
2023/11/12 06:51:51;;;;;;;23.33;20.25;;;6.50;81.00;;;;;;4840145;29;20118;-94
2023/11/12 06:54:18;;;;;;;7.72;3.70;;;6.50;80.80;;;;;;4841111;29;20531;-92
2023/11/12 06:56:46;;;;;;;8.20;4.33;;;6.40;80.40;;;;;;4846705;29;20092;-93
2023/11/12 06:59:13;;;;;;;5.53;2.00;;;6.30;80.40;;;;;;4831308;29;20148;-92
2023/11/12 07:01:41;;;;;;;5.93;2.30;;;6.20;80.30;;;;;;4846398;29;20050;-92
2023/11/12 07:04:10;;;;;;;8.60;3.83;;;6.10;80.80;;;;;;4831228;29;20118;-92
2023/11/12 07:06:37;;;;;;;7.13;2.90;;;6.10;80.90;;;;;;4846132;29;20053;-92
2023/11/12 07:09:04;;;;;;;8.23;4.03;;;6.20;80.90;;;;;;4830802;29;20076;-92
2023/11/12 07:11:32;;;;;;;8.88;4.10;;;6.20;80.80;;;;;;4833345;29;20509;-94
2023/11/12 07:14:00;;;;;;;7.18;2.95;;;6.20;80.80;;;;;;4831202;29;20049;-94
2023/11/12 07:16:29;;;;;;;8.45;2.78;;;6.30;80.70;;;;;;4830465;29;20448;-95
2023/11/12 07:18:57;;;;;;;6.22;2.10;;;6.30;80.30;;;;;;4845884;29;20417;-95
2023/11/12 07:21:24;;;;;;;7.83;3.63;;;6.30;80.20;;;;;;4831506;29;20134;-95
2023/11/12 07:23:52;;;;;;;6.38;2.92;;;6.40;80.40;;;;;;4832364;29;20050;-96
2023/11/12 07:26:20;;;;;;;7.57;3.47;;;6.50;80.50;;;;;;4831750;29;20050;-95
2023/11/12 07:28:47;;;;;;;8.45;2.72;;;6.50;80.70;;;;;;4831635;29;20054;-96
2023/11/12 07:31:14;;;;;;;6.47;2.67;;;6.50;80.40;;;;;;4831394;29;20085;-96
2023/11/12 07:33:41;;;;;;;7.03;2.30;;;6.50;80.50;;;;;;4830302;29;20513;-95
2023/11/12 07:36:09;;;;;;;7.60;3.25;;;6.50;80.30;;;;;;4830208;29;20091;-96
2023/11/12 07:38:36;;;;;;;8.38;3.33;;;6.50;79.90;;;;;;4830284;29;20061;-96
2023/11/12 07:41:04;;;;;;;10.63;4.55;;;6.50;79.90;;;;;;4830083;29;20144;-95
2023/11/12 07:43:31;;;;;;;15.98;6.68;;;6.50;80.00;;;;;;4830268;29;20046;-96
2023/11/12 07:45:58;;;;;;;11.90;6.40;;;6.50;80.40;;;;;;4830646;29;20046;-96
2023/11/12 07:48:26;;;;;;;10.73;4.30;;;6.50;80.10;;;;;;4830198;29;20058;-96
2023/11/12 07:50:53;;;;;;;10.60;4.85;;;6.50;80.50;;;;;;4829913;29;20050;-96
2023/11/12 07:53:20;;;;;;;14.70;6.25;;;6.50;80.30;;;;;;4831582;29;20140;-96
2023/11/12 07:55:51;;;;;;;13.50;6.20;;;6.50;80.70;;;;;;4834004;29;20050;-96
2023/11/12 07:58:20;;;;;;;12.20;5.40;;;6.50;80.90;;;;;;4830282;29;20489;-96
2023/11/12 08:00:48;;;;;;;10.07;4.72;;;6.50;80.70;;;;;;4831467;29;20049;-96
2023/11/12 08:03:16;;;;;;;12.55;5.53;;;6.60;80.20;;;;;;4829880;29;20054;-96
2023/11/12 08:05:46;;;;;;;13.40;5.63;;;6.60;80.20;;;;;;4830776;29;20094;-96
2023/11/12 08:08:13;;;;;;;20.13;9.65;;;6.60;79.80;;;;;;4829816;29;20057;-96
2023/11/12 08:10:40;;;;;;;13.27;6.47;;;6.70;79.80;;;;;;4830894;29;20568;-96
2023/11/12 08:13:07;;;;;;;11.98;5.95;;;6.70;79.20;;;;;;4831659;29;20102;-96
2023/11/12 08:15:35;;;;;;;10.15;5.05;;;6.60;79.20;;;;;;4831430;29;20089;-96
2023/11/12 08:18:05;;;;;;;10.68;5.38;;;6.60;79.20;;;;;;4832063;29;20046;-96
2023/11/12 08:20:34;;;;;;;9.43;4.60;;;6.60;79.60;;;;;;4831098;29;20050;-96
2023/11/12 08:23:05;;;;;;;9.97;4.63;;;6.60;79.20;;;;;;4830880;29;20045;-96
2023/11/12 08:25:32;;;;;;;9.43;4.30;;;6.50;79.60;;;;;;4832439;29;20144;-96
2023/11/12 08:27:59;;;;;;;9.77;4.15;;;6.50;79.60;;;;;;4833661;29;20052;-96
2023/11/12 08:30:27;;;;;;;9.68;3.72;;;6.40;79.60;;;;;;4832274;29;20050;-96
2023/11/12 08:32:54;;;;;;;9.90;4.70;;;6.40;79.50;;;;;;4830066;29;20524;-96
2023/11/12 08:35:22;;;;;;;10.57;4.63;;;6.40;79.10;;;;;;4829594;29;20528;-96
2023/11/12 08:37:49;;;;;;;10.10;4.07;;;6.40;79.80;;;;;;4829543;29;20054;-96
2023/11/12 08:40:16;;;;;;;9.20;4.53;;;6.40;79.50;;;;;;4829246;29;20129;-96
2023/11/12 08:42:46;;;;;;;9.88;4.78;;;6.50;79.50;;;;;;4829787;29;20531;-96
2023/11/12 08:45:14;;;;;;;9.15;4.78;;;6.30;79.00;;;;;;4829536;29;20050;-96
2023/11/12 08:47:41;;;;;;;10.37;4.73;;;6.30;78.90;;;;;;4829669;29;20046;-96
2023/11/12 08:50:09;;;;;;;10.80;5.10;;;6.30;79.30;;;;;;4829901;29;20050;-96
2023/11/12 08:52:37;;;;;;;9.05;4.63;;;6.30;79.30;;;;;;4829292;29;20085;-96
2023/11/12 08:55:09;;;;;;;9.45;5.10;;;6.40;79.30;;;;;;4830226;29;20050;-96
2023/11/12 08:57:37;;;;;;;9.45;4.53;;;6.50;79.10;;;;;;4829572;29;20092;-96
2023/11/12 09:00:08;;;;;;;10.20;5.23;;;6.60;78.70;;;;;;4830153;29;20056;-96
2023/11/12 09:02:35;;;;;;;10.95;6.05;;;6.70;78.50;;;;;;4829796;29;20050;-96
2023/11/12 09:05:05;;;;;;;12.60;7.22;;;6.80;78.00;;;;;;4830832;29;20057;-96
2023/11/12 09:07:34;;;;;;;17.90;9.95;;;6.80;78.40;;;;;;4833515;29;20394;-96
2023/11/12 09:10:02;;;;;;;23.50;11.45;;;6.90;78.30;;;;;;4833380;29;20069;-96
2023/11/12 09:12:29;;;;;;;14.37;7.63;;;6.90;77.90;;;;;;4834282;29;20121;-94
2023/11/12 09:14:57;;;;;;;24.23;11.68;;;;;;;;;;4830057;29;20054;-96
2023/11/12 09:17:26;;;;;;;14.18;7.80;;;7.10;77.50;;;;;;4847009;29;20527;-96
2023/11/12 09:19:54;;;;;;;19.88;10.27;;;;;;;;;;4829397;29;20050;-96
2023/11/12 09:22:21;;;;;;;8.88;4.28;;;7.20;76.10;;;;;;4843690;29;20069;-96
2023/11/12 09:24:48;;;;;;;8.37;4.57;;;7.20;75.50;;;;;;4828657;29;20481;-94
2023/11/12 09:27:35;;;;;;;14.65;7.20;;;7.20;76.50;;;;;;4831532;29;20082;-96
2023/11/12 09:30:03;;;;;;;20.52;9.40;;;7.30;76.30;;;;;;4828507;29;20500;-96
2023/11/12 09:32:30;;;;;;;20.27;10.05;;;7.40;76.20;;;;;;4828492;29;20509;-96
2023/11/12 09:34:58;;;;;;;16.23;7.72;;;;;;;;;;4843583;29;20140;-94
2023/11/12 09:37:25;;;;;;;10.87;5.40;;;7.30;75.50;;;;;;4843284;29;20050;-96
2023/11/12 09:39:53;;;;;;;11.65;6.28;;;7.40;75.40;;;;;;4828657;29;20046;-96
2023/11/12 09:42:25;;;;;;;8.77;4.63;;;7.30;75.70;;;;;;4829130;29;20144;-96
2023/11/12 09:44:59;;;;;;;7.53;3.92;;;7.20;74.90;;;;;;4829693;29;20079;-96
2023/11/12 09:47:34;;;;;;;8.35;4.30;;;7.20;74.40;;;;;;4829007;29;20148;-95
2023/11/12 09:50:04;;;;;;;8.73;4.80;;;7.20;74.40;;;;;;4829620;29;20572;-96
2023/11/12 09:52:32;;;;;;;8.07;3.88;;;7.30;75.20;;;;;;4828729;29;20054;-95
2023/11/12 09:55:01;;;;;;;8.45;4.05;;;;;;;;;;4828280;29;20137;-95
2023/11/12 09:57:29;;;;;;;9.75;5.07;;;7.40;74.50;;;;;;4842892;29;20466;-95
2023/11/12 09:59:56;;;;;;;9.48;4.60;;;7.50;73.90;;;;;;4827769;29;20501;-95
2023/11/12 10:02:26;;;;;;;8.87;4.73;;;7.40;74.30;;;;;;4828423;29;20061;-95
2023/11/12 10:07:54;;;;;;;7.97;4.18;;;7.50;74.50;;;;;;4827730;29;20046;-96
2023/11/12 10:10:23;;;;;;;8.35;4.50;;;7.50;73.90;;;;;;4828887;29;20512;-95
2023/11/12 10:12:52;;;;;;;9.07;4.28;;;7.50;74.20;;;;;;4828111;29;20068;-94
2023/11/12 10:15:30;;;;;;;9.30;4.37;;;;;;;;;;4827484;29;20144;-94
2023/11/12 10:17:58;;;;;;;8.90;4.20;;;7.50;74.10;;;;;;4827904;29;20138;-96
2023/11/12 10:20:39;;;;;;;8.60;4.28;;;7.50;74.40;;;;;;4827863;29;20054;-93
2023/11/12 10:23:20;;;;;;;12.15;4.18;;;;;;;;;;4827715;29;20073;-96
2023/11/12 10:25:50;;;;;;;8.77;4.00;;;7.70;74.00;;;;;;4827929;29;20566;-95
2023/11/12 10:28:17;;;;;;;7.30;4.00;;;7.70;73.60;;;;;;4827663;29;20057;-95
2023/11/12 10:30:52;;;;;;;8.40;3.90;;;7.70;73.00;;;;;;4827862;29;20061;-95
2023/11/12 10:33:26;;;;;;;8.85;4.05;;;7.70;72.70;;;;;;4827600;29;20050;-95
2023/11/12 10:35:57;;;;;;;8.18;3.53;;;7.80;72.90;;;;;;4827729;29;20054;-96
2023/11/12 10:38:25;;;;;;;10.77;3.67;;;;;;;;;;4827627;29;20053;-95
2023/11/12 10:41:00;;;;;;;8.47;4.00;;;;;;;;;;4828514;29;20050;-95
2023/11/12 10:43:31;;;;;;;8.02;3.75;;;7.90;71.40;;;;;;4828280;29;20050;-96
2023/11/12 10:46:03;;;;;;;8.73;3.60;;;7.90;71.90;;;;;;4827388;29;20102;-93
2023/11/12 10:48:34;;;;;;;7.38;3.47;;;8.00;72.60;;;;;;4827990;29;20053;-94
2023/11/12 10:51:06;;;;;;;7.65;4.10;;;;;;;;;;4827742;29;20513;-94
2023/11/12 10:53:35;;;;;;;7.37;3.77;;;;;;;;;;4827516;29;20077;-95
2023/11/12 10:56:05;;;;;;;9.35;3.63;;;;;;;;;;4827427;29;20050;-95
2023/11/12 10:58:36;;;;;;;7.25;3.17;;;;;;;;;;4827667;29;20395;-95
2023/11/12 11:01:06;;;;;;;6.95;3.20;;;;;;;;;;4842594;29;20054;-94
2023/11/12 11:03:38;;;;;;;7.43;3.15;;;;;;;;;;4828180;29;20050;-94
2023/11/12 11:06:07;;;;;;;8.17;3.27;;;;;;;;;;4846331;29;20076;-90
2023/11/12 11:08:35;;;;;;;6.30;2.80;;;;;;;;;;4835525;29;20132;-91
2023/11/12 11:11:03;;;;;;;6.18;2.58;;;;;;;;;;4833958;29;20228;-90
2023/11/12 11:13:37;;;;;;;8.32;2.97;;;;;;;;;;4841582;29;20046;-91
2023/11/12 11:16:05;;;;;;;7.18;3.20;;;;;;;;;;4850262;29;20068;-92
2023/11/12 11:18:33;;;;;;;6.53;2.90;;;;;;;;;;4839344;29;20046;-92
2023/11/12 11:21:05;;;;;;;8.65;5.15;;;;;;;;;;4849840;29;20050;-92
2023/11/12 11:23:42;;;;;;;6.05;2.80;;;;;;;;;;4852571;29;20592;-91
2023/11/12 11:26:29;;;;;;;5.82;2.30;;;;;;;;;;4829627;29;20046;-94
2023/11/12 11:29:09;;;;;;;5.15;2.25;;;;;;;;;;4827736;29;20466;-95
2023/11/12 11:31:55;;;;;;;6.23;2.40;;;;;;;;;;4842655;29;20054;-95
2023/11/12 11:34:39;;;;;;;5.75;2.38;;;;;;;;;;4830237;29;20120;-94
2023/11/12 11:37:07;;;;;;;5.43;2.53;;;;;;;;;;4849080;29;20057;-95
2023/11/12 11:39:36;;;;;;;10.68;4.45;;;;;;;;;;4837028;29;20050;-95
2023/11/12 11:42:06;;;;;;;9.30;3.90;;;;;;;;;;4850464;29;20053;-96
2023/11/12 11:44:44;;;;;;;7.70;2.70;;;;;;;;;;4847909;29;20050;-96
2023/11/12 11:47:15;;;;;;;10.25;3.58;;;;;;;;;;4830771;29;20513;-95
2023/11/12 11:49:59;;;;;;;7.32;2.88;;;;;;;;;;4846616;29;20054;-96
2023/11/12 11:52:28;;;;;;;7.40;3.30;;;;;;;;;;4847719;29;20057;-96
2023/11/12 11:54:57;;;;;;;6.05;2.67;;;;;;;;;;4847736;29;20413;-96
2023/11/12 11:57:27;;;;;;;5.27;2.30;;;;;;;;;;4846571;29;20565;-96
2023/11/12 12:04:05;;;;;;;5.43;2.17;;;;;;;;;;4847334;29;20040;-94
2023/11/12 12:06:33;;;;;;;5.30;2.55;;;;;;;;;;4843337;29;20086;-93
2023/11/12 12:09:01;;;;;;;6.05;2.85;;;;;;;;;;4851366;29;20057;-93
2023/11/12 12:11:33;;;;;;;6.37;2.20;;;;;;;;;;4844895;29;20061;-92
2023/11/12 12:14:05;;;;;;;6.88;2.72;;;;;;;;;;4833225;29;20090;-94
2023/11/12 12:21:03;;;;;;;7.20;3.00;;;;;;;;;;4846373;29;20094;-94
2023/11/12 12:39:47;;;;;;;6.47;1.70;;;;;;;;;;4925976;24;20454;-95
2023/11/12 12:42:16;;;;;;;5.20;1.80;;;;;;;;;;4829901;29;20069;-93
2023/11/12 12:44:51;;;;;;;7.47;1.77;;;;;;;;;;4829747;29;20053;-94
2023/11/12 12:47:35;;;;;;;6.70;2.17;;;;;;;;;;4829514;29;20050;-94
2023/11/12 12:50:16;;;;;;;5.65;1.95;;;;;;;;;;4815071;29;20084;-94
2023/11/12 12:52:46;;;;;;;4.53;1.73;;;;;;;;;;4831018;29;20524;-94
2023/11/12 12:55:20;;;;;;;3.97;1.40;;;;;;;;;;4816982;29;20125;-94
2023/11/12 12:57:52;;;;;;;3.65;1.23;;;;;;;;;;4831306;29;20096;-93
2023/11/12 13:00:24;;;;;;;3.60;1.35;;;;;;;;;;4818017;29;20054;-95
2023/11/12 13:02:52;;;;;;;5.03;1.63;;;;;;;;;;4831753;29;20106;-95
2023/11/12 13:05:21;;;;;;;4.40;1.65;;;;;;;;;;4832333;29;20049;-95
2023/11/12 13:07:50;;;;;;;3.40;1.30;;;;;;;;;;4834242;29;20505;-95
2023/11/12 13:10:20;;;;;;;5.63;2.75;;;;;;;;;;4833274;29;20050;-94
2023/11/12 13:12:50;;;;;;;4.80;1.85;;;;;;;;;;4829912;29;20061;-96
2023/11/12 13:15:21;;;;;;;6.18;2.25;;;;;;;;;;4830146;29;20081;-95
2023/11/12 13:17:49;;;;;;;4.20;1.65;;;;;;;;;;4829832;29;20582;-95
2023/11/12 13:20:17;;;;;;;6.37;2.50;;;;;;;;;;4814650;29;20053;-95
2023/11/12 13:22:45;;;;;;;5.10;2.05;;;;;;;;;;4814228;29;20085;-95
2023/11/12 13:25:16;;;;;;;4.85;1.95;;;;;;;;;;4830243;29;20054;-96
2023/11/12 13:27:48;;;;;;;5.65;2.28;;;;;;;;;;4814519;29;20060;-94
2023/11/12 13:30:16;;;;;;;6.82;2.85;;;;;;;;;;4795809;29;20066;-94
2023/11/12 13:32:46;;;;;;;7.43;3.50;;;;;;;;;;4810351;29;20073;-93
2023/11/12 13:35:14;;;;;;;5.68;2.70;;;;;;;;;;4810283;29;20149;-94
2023/11/12 13:37:45;;;;;;;6.45;2.40;;;;;;;;;;4810112;29;20058;-93
2023/11/12 13:40:16;;;;;;;7.97;3.22;;;;;;;;;;4810623;29;20107;-94
2023/11/12 13:42:44;;;;;;;6.03;2.58;;;;;;;;;;4810020;29;20058;-94
2023/11/12 13:45:13;;;;;;;6.27;2.93;;;;;;;;;;4810070;29;20046;-94
2023/11/12 13:47:42;;;;;;;6.43;2.60;;;;;;;;;;4810174;29;20477;-95
2023/11/12 13:50:13;;;;;;;5.78;2.47;;;;;;;;;;4810151;29;20046;-93
2023/11/12 13:52:43;;;;;;;5.40;2.20;;;;;;;;;;4795177;29;20096;-93